createdAt,value
2018-05-25T00:01:22.634Z,102225.80
2018-05-25T00:04:25.942Z,102225.88
2018-05-25T00:07:29.263Z,102231.67
2018-05-25T00:10:32.574Z,102234.84
2018-05-25T00:13:35.885Z,102242.64
2018-05-25T00:16:39.206Z,102233.79
2018-05-25T00:19:42.525Z,102240.37
2018-05-25T00:22:45.831Z,102239.23
2018-05-25T00:25:49.922Z,102233.13
2018-05-25T00:28:53.226Z,102229.98
2018-05-25T00:31:56.542Z,102230.72
2018-05-25T00:35:00.605Z,102226.70
2018-05-25T00:38:03.921Z,102230.53
2018-05-25T00:41:07.243Z,102224.45
2018-05-25T00:44:11.346Z,102219.20
2018-05-25T00:47:14.654Z,102221.20
2018-05-25T00:50:18.764Z,102217.82
2018-05-25T00:53:22.054Z,102208.98
2018-05-25T00:56:25.403Z,102211.39
2018-05-25T00:59:28.708Z,102212.77
2018-05-25T01:02:32.026Z,102210.59
2018-05-25T01:05:35.327Z,102202.70
2018-05-25T01:08:38.650Z,102206.63
2018-05-25T01:11:42.734Z,102208.20
2018-05-25T01:14:46.045Z,102204.01
2018-05-25T01:17:49.365Z,102199.95
2018-05-25T01:20:52.685Z,102204.42
2018-05-25T01:23:56.001Z,102204.51
2018-05-25T01:26:59.351Z,102200.18
2018-05-25T01:30:02.670Z,102199.75
2018-05-25T01:33:05.973Z,102205.03
2018-05-25T01:36:09.286Z,102199.68
2018-05-25T01:39:12.614Z,102196.22
2018-05-25T01:42:16.709Z,102201.34
2018-05-25T01:45:20.048Z,102189.13
2018-05-25T01:48:23.361Z,102190.52
2018-05-25T01:51:26.689Z,102185.20
2018-05-25T01:54:29.994Z,102186.37
2018-05-25T01:57:33.334Z,102193.42
2018-05-25T02:00:37.409Z,102189.93
2018-05-25T02:03:40.765Z,102191.72
2018-05-25T02:06:44.074Z,102192.09
2018-05-25T02:09:47.394Z,102188.09
2018-05-25T02:12:50.701Z,102181.05
2018-05-25T02:15:54.013Z,102183.56
2018-05-25T02:18:57.308Z,102182.95
2018-05-25T02:22:00.625Z,102184.65
2018-05-25T02:25:04.696Z,102184.22
2018-05-25T02:28:08.023Z,102182.19
2018-05-25T02:31:11.352Z,102180.30
2018-05-25T02:34:14.653Z,102176.94
2018-05-25T02:37:17.969Z,102185.70
2018-05-25T02:40:21.280Z,102190.25
2018-05-25T02:43:24.609Z,102190.47
2018-05-25T02:46:27.919Z,102178.75
2018-05-25T02:49:31.996Z,102192.86
2018-05-25T02:52:35.303Z,102185.09
2018-05-25T02:55:38.657Z,102190.69
2018-05-25T02:58:41.964Z,102188.98
2018-05-25T03:01:45.278Z,102190.58
2018-05-25T03:04:48.594Z,102195.83
2018-05-25T03:07:51.927Z,102188.69
2018-05-25T03:10:55.241Z,102191.08
2018-05-25T03:13:58.561Z,102187.52
2018-05-25T03:17:01.871Z,102185.38
2018-05-25T03:20:05.210Z,102190.84
2018-05-25T03:23:08.519Z,102191.93
2018-05-25T03:26:11.893Z,102193.95
2018-05-25T03:29:15.181Z,102199.72
2018-05-25T03:32:18.498Z,102197.33
2018-05-25T03:35:21.792Z,102189.55
2018-05-25T03:38:25.521Z,102197.58
2018-05-25T03:41:28.821Z,102192.97
2018-05-25T03:44:32.141Z,102194.31
2018-05-25T03:47:35.455Z,102193.09
2018-05-25T03:50:38.778Z,102194.80
2018-05-25T03:53:42.849Z,102196.48
2018-05-25T03:56:46.169Z,102197.84
2018-05-25T04:00:07.238Z,102200.64
2018-05-25T04:03:10.559Z,102208.55
2018-05-25T04:06:13.864Z,102201.89
2018-05-25T04:09:18.014Z,102208.53
2018-05-25T04:12:21.318Z,102205.66
2018-05-25T04:15:24.628Z,102204.11
2018-05-25T04:18:27.941Z,102211.06
2018-05-25T04:21:31.264Z,102208.84
2018-05-25T04:24:34.570Z,102210.48
2018-05-25T04:27:37.881Z,102212.78
2018-05-25T04:30:41.990Z,102213.91
2018-05-25T04:33:46.061Z,102212.12
2018-05-25T04:36:49.369Z,102208.77
2018-05-25T04:39:52.673Z,102211.48
2018-05-25T04:42:55.998Z,102205.88
2018-05-25T04:46:00.069Z,102200.35
2018-05-25T04:49:03.385Z,102197.84
2018-05-25T04:52:06.689Z,102197.74
2018-05-25T04:55:10.013Z,102205.13
2018-05-25T04:58:13.326Z,102210.41
2018-05-25T05:01:16.646Z,102209.50
2018-05-25T05:04:19.957Z,102204.06
2018-05-25T05:07:23.270Z,102203.34
2018-05-25T05:10:26.576Z,102207.80
2018-05-25T05:13:30.657Z,102209.30
2018-05-25T05:16:33.970Z,102207.07
2018-05-25T05:19:37.286Z,102209.13
2018-05-25T05:22:41.359Z,102209.87
2018-05-25T05:25:44.673Z,102205.34
2018-05-25T05:28:47.986Z,102203.25
2018-05-25T05:31:51.393Z,102207.58
2018-05-25T05:34:55.497Z,102203.74
2018-05-25T05:37:58.802Z,102205.43
2018-05-25T05:41:02.127Z,102211.50
2018-05-25T05:44:05.434Z,102214.08
2018-05-25T05:47:08.741Z,102216.80
2018-05-25T05:50:12.065Z,102217.19
2018-05-25T05:53:15.373Z,102222.63
2018-05-25T05:56:18.778Z,102224.09
2018-05-25T05:59:22.082Z,102233.26
2018-05-25T06:02:26.181Z,102231.78
2018-05-25T06:05:29.493Z,102230.84
2018-05-25T06:08:33.569Z,102226.13
2018-05-25T06:11:36.879Z,102231.72
2018-05-25T06:14:40.198Z,102231.77
2018-05-25T06:17:43.538Z,102228.13
2018-05-25T06:20:46.857Z,102237.28
2018-05-25T06:23:50.169Z,102231.36
2018-05-25T06:26:53.481Z,102237.05
2018-05-25T06:29:56.797Z,102233.78
2018-05-25T06:33:00.878Z,102236.27
2018-05-25T06:36:04.217Z,102238.94
2018-05-25T06:39:07.515Z,102238.79
2018-05-25T06:42:10.837Z,102242.44
2018-05-25T06:45:14.141Z,102251.08
2018-05-25T06:48:17.481Z,102244.88
2018-05-25T06:51:20.781Z,102245.22
2018-05-25T06:54:24.862Z,102249.54
2018-05-25T06:57:28.175Z,102251.16
2018-05-25T07:00:31.499Z,102258.61
2018-05-25T07:03:35.570Z,102265.08
2018-05-25T07:06:38.876Z,102254.21
2018-05-25T07:09:42.185Z,102252.00
2018-05-25T07:12:45.497Z,102257.71
2018-05-25T07:15:49.570Z,102264.05
2018-05-25T07:18:52.889Z,102265.55
2018-05-25T07:21:56.200Z,102266.34
2018-05-25T07:25:00.281Z,102255.30
2018-05-25T07:28:03.593Z,102264.28
2018-05-25T07:31:06.918Z,102260.77
2018-05-25T07:34:11.010Z,102258.56
2018-05-25T07:37:14.314Z,102249.79
2018-05-25T07:40:18.389Z,102247.98
2018-05-25T07:43:21.697Z,102248.61
2018-05-25T07:46:25.010Z,102245.17
2018-05-25T07:49:28.335Z,102250.75
2018-05-25T07:52:31.674Z,102250.22
2018-05-25T07:55:34.978Z,102251.94
2018-05-25T07:58:38.297Z,102247.36
2018-05-25T08:01:41.601Z,102254.13
2018-05-25T08:04:44.926Z,102258.06
2018-05-25T08:07:48.229Z,102256.78
2018-05-25T08:10:51.546Z,102252.91
2018-05-25T08:13:54.861Z,102247.34
2018-05-25T08:16:58.169Z,102260.06
2018-05-25T08:20:01.509Z,102248.52
2018-05-25T08:23:04.809Z,102252.12
2018-05-25T08:26:08.123Z,102251.59
2018-05-25T08:29:11.430Z,102249.55
2018-05-25T08:32:14.777Z,102250.30
2018-05-25T08:35:18.854Z,102245.14
2018-05-25T08:38:22.182Z,102245.48
2018-05-25T08:41:26.258Z,102249.25
2018-05-25T08:44:29.582Z,102246.63
2018-05-25T08:47:32.911Z,102252.67
2018-05-25T08:50:36.222Z,102246.64
2018-05-25T08:53:39.540Z,102253.20
2018-05-25T08:56:42.845Z,102253.41
2018-05-25T08:59:46.150Z,102243.84
2018-05-25T09:02:49.465Z,102254.70
2018-05-25T09:05:52.784Z,102240.86
2018-05-25T09:08:56.090Z,102244.07
2018-05-25T09:11:59.409Z,102253.24
2018-05-25T09:15:02.720Z,102258.63
2018-05-25T09:18:06.044Z,102253.48
2018-05-25T09:21:09.345Z,102259.03
2018-05-25T09:24:12.657Z,102260.58
2018-05-25T09:27:16.729Z,102255.88
2018-05-25T09:30:20.045Z,102260.32
2018-05-25T09:33:23.377Z,102251.58
2018-05-25T09:36:26.680Z,102259.67
2018-05-25T09:39:30.001Z,102253.85
2018-05-25T09:42:33.317Z,102250.36
2018-05-25T09:45:36.634Z,102257.88
2018-05-25T09:48:40.717Z,102260.11
2018-05-25T09:51:44.017Z,102273.86
2018-05-25T09:54:47.333Z,102257.46
2018-05-25T09:57:57.267Z,102259.26
2018-05-25T10:01:00.593Z,102265.80
2018-05-25T10:04:04.673Z,102265.93
2018-05-25T10:07:07.984Z,102262.32
2018-05-25T10:10:11.290Z,102264.53
2018-05-25T10:13:14.605Z,102278.72
2018-05-25T10:16:18.682Z,102276.91
2018-05-25T10:19:21.990Z,102277.98
2018-05-25T10:22:25.338Z,102269.50
2018-05-25T10:25:28.646Z,102271.86
2018-05-25T10:28:31.953Z,102279.52
2018-05-25T10:31:35.252Z,102269.36
2018-05-25T10:34:38.575Z,102271.17
2018-05-25T10:37:41.877Z,102271.33
2018-05-25T10:40:45.202Z,102269.94
2018-05-25T10:43:48.529Z,102274.92
2018-05-25T10:46:51.846Z,102266.03
2018-05-25T10:49:55.150Z,102264.50
2018-05-25T10:52:58.461Z,102254.20
2018-05-25T10:56:01.785Z,102254.88
2018-05-25T10:59:05.861Z,102258.64
2018-05-25T11:02:09.201Z,102261.27
2018-05-25T11:05:12.510Z,102268.05
2018-05-25T11:08:15.834Z,102265.45
2018-05-25T11:11:19.140Z,102259.91
2018-05-25T11:14:22.457Z,102274.22
2018-05-25T11:17:25.770Z,102267.83
2018-05-25T11:20:29.867Z,102269.38
2018-05-25T11:23:33.178Z,102275.75
2018-05-25T11:26:36.485Z,102265.88
2018-05-25T11:29:39.789Z,102261.02
2018-05-25T11:32:43.108Z,102270.05
2018-05-25T11:35:46.422Z,102260.17
2018-05-25T11:38:49.731Z,102274.78
2018-05-25T11:41:53.041Z,102251.83
2018-05-25T11:44:56.369Z,102269.34
2018-05-25T11:47:59.645Z,102259.04
2018-05-25T11:51:02.989Z,102273.67
2018-05-25T11:54:06.330Z,102270.47
2018-05-25T11:57:09.625Z,102267.96
2018-05-25T12:00:12.936Z,102255.60
2018-05-25T12:03:17.140Z,102257.54
2018-05-25T12:06:20.450Z,102265.89
2018-05-25T12:09:24.554Z,102256.83
2018-05-25T12:12:27.859Z,102266.14
2018-05-25T12:15:31.942Z,102259.63
2018-05-25T12:18:35.265Z,102263.78
2018-05-25T12:21:39.353Z,102258.13
2018-05-25T12:24:42.672Z,102259.18
2018-05-25T12:27:46.762Z,102263.78
2018-05-25T12:30:50.097Z,102265.31
2018-05-25T12:33:54.177Z,102250.30
2018-05-25T12:36:57.486Z,102253.36
2018-05-25T12:40:00.824Z,102253.52
2018-05-25T12:43:04.146Z,102255.72
2018-05-25T12:46:07.472Z,102248.65
2018-05-25T12:49:10.776Z,102257.41
2018-05-25T12:52:14.103Z,102253.37
2018-05-25T12:55:17.437Z,102252.52
2018-05-25T12:58:20.757Z,102246.67
2018-05-25T13:01:24.077Z,102249.63
2018-05-25T13:04:28.185Z,102247.82
2018-05-25T13:07:32.256Z,102261.44
2018-05-25T13:10:35.593Z,102262.14
2018-05-25T13:13:39.677Z,102255.44
2018-05-25T13:16:42.993Z,102264.08
2018-05-25T13:19:46.301Z,102262.14
2018-05-25T13:22:49.657Z,102266.17
2018-05-25T13:25:52.986Z,102258.25
2018-05-25T13:28:56.315Z,102260.72
2018-05-25T13:31:59.632Z,102254.33
2018-05-25T13:35:02.943Z,102251.72
2018-05-25T13:38:06.267Z,102246.84
2018-05-25T13:41:09.598Z,102255.18
2018-05-25T13:44:12.943Z,102244.22
2018-05-25T13:47:16.242Z,102246.42
2018-05-25T13:50:19.573Z,102253.50
2018-05-25T13:53:22.888Z,102254.91
2018-05-25T13:56:26.238Z,102248.20
2018-05-25T13:59:29.549Z,102248.36
2018-05-25T14:02:32.862Z,102245.28
2018-05-25T14:05:36.178Z,102236.41
2018-05-25T14:08:39.501Z,102233.19
2018-05-25T14:11:42.871Z,102226.36
2018-05-25T14:14:46.153Z,102226.59
2018-05-25T14:17:50.255Z,102230.89
2018-05-25T14:20:53.578Z,102231.01
2018-05-25T14:23:56.906Z,102228.52
2018-05-25T14:27:00.237Z,102221.41
2018-05-25T14:30:03.573Z,102220.69
2018-05-25T14:33:06.901Z,102219.40
2018-05-25T14:36:11.902Z,102230.33
2018-05-25T14:39:15.233Z,102235.75
2018-05-25T14:42:18.539Z,102238.58
2018-05-25T14:45:21.856Z,102225.94
2018-05-25T14:48:25.195Z,102231.14
2018-05-25T14:51:28.506Z,102224.78
2018-05-25T14:54:31.829Z,102233.44
2018-05-25T14:57:35.135Z,102227.27
2018-05-25T15:00:38.447Z,102232.27
2018-05-25T15:03:41.758Z,102213.91
2018-05-25T15:06:45.872Z,102221.59
2018-05-25T15:09:49.177Z,102214.55
2018-05-25T15:12:53.263Z,102214.60
2018-05-25T15:15:56.570Z,102212.34
2018-05-25T15:18:59.894Z,102211.33
2018-05-25T15:22:03.202Z,102211.48
2018-05-25T15:25:06.550Z,102208.48
2018-05-25T15:28:09.909Z,102202.16
2018-05-25T15:31:13.223Z,102213.03
2018-05-25T15:34:16.522Z,102219.86
2018-05-25T15:37:19.833Z,102210.27
2018-05-25T15:40:23.170Z,102215.91
2018-05-25T15:43:26.470Z,102207.94
2018-05-25T15:46:29.827Z,102204.78
2018-05-25T15:49:33.150Z,102207.73
2018-05-25T15:52:37.234Z,102203.16
2018-05-25T15:55:40.558Z,102219.23
2018-05-25T15:58:44.638Z,102204.90
2018-05-25T16:01:47.961Z,102206.97
2018-05-25T16:04:52.042Z,102196.64
2018-05-25T16:07:55.349Z,102208.02
2018-05-25T16:10:58.670Z,102204.65
2018-05-25T16:14:02.738Z,102205.69
2018-05-25T16:17:06.084Z,102193.09
2018-05-25T16:20:10.158Z,102202.16
2018-05-25T16:23:13.496Z,102199.52
2018-05-25T16:26:16.824Z,102202.14
2018-05-25T16:29:20.173Z,102197.22
2018-05-25T16:32:23.476Z,102199.91
2018-05-25T16:35:26.790Z,102187.81
2018-05-25T16:38:30.854Z,102185.92
2018-05-25T16:41:34.175Z,102186.40
2018-05-25T16:44:37.473Z,102187.36
2018-05-25T16:47:40.791Z,102176.72
2018-05-25T16:50:44.876Z,102173.06
2018-05-25T16:53:48.203Z,102165.83
2018-05-25T16:56:51.518Z,102163.56
2018-05-25T16:59:54.861Z,102169.55
2018-05-25T17:02:58.169Z,102173.96
2018-05-25T17:06:01.480Z,102177.38
2018-05-25T17:09:06.453Z,102181.91
2018-05-25T17:12:09.768Z,102180.04
2018-05-25T17:15:13.078Z,102188.83
2018-05-25T17:18:16.399Z,102188.58
2018-05-25T17:21:19.721Z,102197.62
2018-05-25T17:24:23.079Z,102196.70
2018-05-25T17:27:26.362Z,102190.73
2018-05-25T17:30:29.695Z,102200.85
2018-05-25T17:33:33.022Z,102203.34
2018-05-25T17:36:36.330Z,102202.60
2018-05-25T17:39:39.657Z,102212.70
2018-05-25T17:42:42.962Z,102212.58
2018-05-25T17:45:46.294Z,102210.73
2018-05-25T17:48:49.592Z,102214.71
2018-05-25T17:51:52.937Z,102207.81
2018-05-25T17:54:56.249Z,102205.91
2018-05-25T17:57:59.562Z,102215.63
2018-05-25T18:01:03.624Z,102211.16
2018-05-25T18:04:06.937Z,102210.56
2018-05-25T18:07:10.238Z,102213.18
2018-05-25T18:10:13.554Z,102215.89
2018-05-25T18:13:16.874Z,102215.69
2018-05-25T18:16:20.206Z,102211.64
2018-05-25T18:19:23.505Z,102216.58
2018-05-25T18:22:26.816Z,102215.59
2018-05-25T18:25:30.183Z,102215.98
2018-05-25T18:28:33.518Z,102204.28
2018-05-25T18:31:36.818Z,102206.34
2018-05-25T18:34:40.138Z,102211.48
2018-05-25T18:37:44.213Z,102204.95
2018-05-25T18:40:47.534Z,102203.94
2018-05-25T18:43:50.837Z,102198.47
2018-05-25T18:46:54.158Z,102193.52
2018-05-25T18:49:57.469Z,102194.97
2018-05-25T18:53:00.778Z,102198.20
2018-05-25T18:56:04.084Z,102200.77
2018-05-25T18:59:07.393Z,102204.84
2018-05-25T19:02:10.717Z,102208.78
2018-05-25T19:05:14.029Z,102202.10
2018-05-25T19:08:18.106Z,102203.23
2018-05-25T19:11:21.447Z,102203.92
2018-05-25T19:14:25.522Z,102201.64
2018-05-25T19:17:28.837Z,102199.56
2018-05-25T19:20:32.160Z,102207.84
2018-05-25T19:23:35.468Z,102209.56
2018-05-25T19:26:38.777Z,102206.28
2018-05-25T19:29:42.130Z,102213.42
2018-05-25T19:32:46.201Z,102214.98
2018-05-25T19:35:49.519Z,102220.41
2018-05-25T19:38:52.866Z,102226.55
2018-05-25T19:41:56.165Z,102236.52
2018-05-25T19:44:59.485Z,102233.19
2018-05-25T19:48:02.804Z,102233.21
2018-05-25T19:51:06.123Z,102235.02
2018-05-25T19:54:10.190Z,102232.70
2018-05-25T19:57:13.509Z,102227.20
2018-05-25T20:00:16.829Z,102227.30
2018-05-25T20:03:20.917Z,102224.84
2018-05-25T20:06:24.272Z,102222.20
2018-05-25T20:09:27.549Z,102225.67
2018-05-25T20:12:30.879Z,102219.04
2018-05-25T20:15:34.189Z,102211.74
2018-05-25T20:18:37.506Z,102208.63
2018-05-25T20:21:40.845Z,102207.72
2018-05-25T20:24:44.149Z,102208.06
2018-05-25T20:27:47.490Z,102202.06
2018-05-25T20:30:50.789Z,102204.76
2018-05-25T20:33:54.102Z,102200.79
2018-05-25T20:36:57.420Z,102205.63
2018-05-25T20:40:01.531Z,102209.22
2018-05-25T20:43:05.601Z,102205.53
2018-05-25T20:46:08.914Z,102209.12
2018-05-25T20:49:12.229Z,102209.59
2018-05-25T20:52:16.306Z,102211.95
2018-05-25T20:55:19.634Z,102212.23
2018-05-25T20:58:22.938Z,102220.14
2018-05-25T21:01:27.025Z,102224.72
2018-05-25T21:04:30.337Z,102226.95
2018-05-25T21:07:33.651Z,102229.76
2018-05-25T21:10:36.959Z,102232.39
2018-05-25T21:13:40.281Z,102229.30
2018-05-25T21:16:43.583Z,102231.16
2018-05-25T21:19:46.901Z,102225.87
2018-05-25T21:22:50.202Z,102231.62
2018-05-25T21:25:53.517Z,102234.87
2018-05-25T21:28:57.593Z,102230.69
2018-05-25T21:32:00.907Z,102233.66
2018-05-25T21:35:04.237Z,102236.77
2018-05-25T21:38:08.309Z,102234.13
2018-05-25T21:41:11.613Z,102235.89
2018-05-25T21:44:14.915Z,102239.70
2018-05-25T21:47:18.251Z,102238.14
2018-05-25T21:50:21.553Z,102243.36
2018-05-25T21:53:24.877Z,102250.77
2018-05-25T21:56:28.223Z,102251.72
2018-05-25T21:59:32.303Z,102249.56
2018-05-25T22:02:35.630Z,102253.18
2018-05-25T22:05:38.933Z,102248.47
2018-05-25T22:08:43.043Z,102253.94
2018-05-25T22:11:46.354Z,102253.79
2018-05-25T22:14:50.438Z,102249.95
2018-05-25T22:17:53.752Z,102249.16
2018-05-25T22:20:57.078Z,102249.20
2018-05-25T22:24:00.378Z,102250.42
2018-05-25T22:27:03.706Z,102246.93
2018-05-25T22:30:07.013Z,102256.39
2018-05-25T22:33:10.324Z,102261.42
2018-05-25T22:36:13.632Z,102258.84
2018-05-25T22:39:16.947Z,102272.91
2018-05-25T22:42:37.927Z,102271.45
2018-05-25T22:45:58.748Z,102269.72
2018-05-25T22:49:20.598Z,102265.09
2018-05-25T22:52:28.554Z,102257.42
2018-05-25T22:55:31.865Z,102252.83
2018-05-25T22:58:35.181Z,102249.58
2018-05-25T23:01:39.258Z,102247.34
2018-05-25T23:04:42.562Z,102248.61
2018-05-25T23:07:45.889Z,102246.01
2018-05-25T23:10:49.953Z,102245.44
2018-05-25T23:13:53.298Z,102240.79
2018-05-25T23:16:57.377Z,102242.38
2018-05-25T23:20:00.693Z,102240.15
2018-05-25T23:23:04.014Z,102235.72
2018-05-25T23:26:08.078Z,102234.00
2018-05-25T23:29:11.385Z,102231.81
2018-05-25T23:32:14.705Z,102225.06
2018-05-25T23:35:18.050Z,102221.50
2018-05-25T23:38:21.349Z,102218.86
2018-05-25T23:41:24.662Z,102217.79
2018-05-25T23:44:27.973Z,102213.28
2018-05-25T23:47:31.297Z,102215.91
2018-05-25T23:50:35.364Z,102212.04
2018-05-25T23:53:38.702Z,102224.70
2018-05-25T23:56:42.773Z,102224.58
2018-05-25T23:59:46.081Z,102228.38
